Terminal Aerodrome Forecast
Issued by NWS Pocatello, ID

Home | Current Version | Previous Version | Text Only | Print | Product List | Glossary On
Versions: 1 2 3 4 5 6 7 8 9 10 11 12 13 14 15 16 17 18 19 20 21 22
000
FTUS45 KPIH 231446 AAC
TAFPIH
TAF AMD
KPIH 231446Z 2315/2412 05005KT 1SM -SN BR OVC015
     FM232000 05008KT 4SM -SN BR SCT008 OVC015
     FM240100 25012G22KT 3SM -SN BR SCT006 OVC010
      TEMPO 2403/2407 1/2SM SN FG SCT004 OVC005=

USA.gov is the U.S. government's official web portal to all federal, state and local government web resources and services.